Terminal Aerodrome Forecast
Issued by NWS

Home | Current Version | Previous Version | Text Only | Print | Product List | Glossary On
Versions: 1 2 3 4 5 6 7 8 9 10 11 12 13 14 15 16 17 18
196
FTUS44 KBMX 271155 AAA
TAFANB
TAF AMD
KANB 271155Z 2712/2812 00000KT P6SM FEW150
     FM271300 VRB05KT P6SM FEW150
     FM280000 36003KT P6SM FEW120
     FM281000 08004KT P6SM FEW100=

USA.gov is the U.S. government's official web portal to all federal, state and local government web resources and services.